West Point, NY (10996)

2:41 AM EDT on May 23, 2015 (GMT -0400)
RAWS | | Change Station
CLOSE
Current Station
Personal Weather Station
Location: West Point, NY
Elevation: 921 ft
Nearby Weather Stations

Elev 921 ft 41.37 °N, 74.03 °W | Updated 46 minutes ago

Clear
Clear
48 °F
Feels Like 48 °F
N
3
Wind Variable Wind from NNW
Gusts 17.0 mph

Today
High -- | Low -- °F
--% Chance of Precip.
Yesterday
High -- | Low -- °F
Precip. -- in
5:30 AM 8:15 PM
Waxing Crescent, 27% visible
Pressure 30.21 in
Visibility 10.0 miles
Clouds Clear
Windchill 48 °F
Dew Point 22 °F
Humidity 35%
Rainfall in
Snow Depth Not available.
UV 0 out of 12
Pollen 9.40 out of 12
Air Quality Not available.
Flu Activity Widespread
METAR KSWF 230645Z 30008KT 10SM SKC 08/M03 A3021

More Conditions Fewer Conditions

Pressure 30.21 in
Visibility 10.0 miles
Clouds Clear
Windchill 48 °F
Dew Point 22 °F
Humidity 35%
Rainfall in
Snow Depth Not available.
UV 0 out of 12
Pollen 9.40 out of 12
Air Quality Not available.
Flu Activity Widespread
METAR KSWF 230645Z 30008KT 10SM SKC 08/M03 A3021

More Conditions Fewer Conditions

10-Day Weather Forecast

Almanac

Astronomy

May. 23, 2015 Rise Set
Actual Time
Civil Twilight
Nautical Twilight
Astronomical Twilight
Moon
Length of Visible Light
Length of Day
Tomorrow will be .
, % of the Moon is Illuminated

Today's Extremes

State Highs State Lows

Community

WunderPhotos

Upload Photos

1,823,394 photos uploaded!

WunderBlogs® & News

Nearby

Air Quality

  Air Quality AQ Index Pollutant
Not available.

Snow Depth

Station Depth Elevation

Earthquake Activity

City Distance Mag. Time & Date
Minimum magnitude displayed is 2.5.

Coastal Water Temperatures

Place Temperature

Stations

Nearby Weather Stations

Station Location Temp. Windchill Dew Point Humidity Wind Precip. Elev Updated Type